PAF5320 RPVM-RPVP
Flight info
| Callsign | PAF5320 |
|---|---|
| Flight time | N/A |
| Altitude | 8000 |
| Route | MCT DCT GAYUD W291 KALAH DCT PR |
| Aircraft | C208/L-SDFGR/C |
Departure
| Time | 2026-05-07 08:17 |
|---|---|
| Airport | Mactan Cebu International Airport (RPVM) |
Arrival
| Time | N/A |
|---|---|
| Airport | Puerto Princesa International Airport / PAF Antonio Bautista Air Base (RPVP) |
| Time | Latitude | Longitude | Altitude | Speed | Heading |
|---|---|---|---|---|---|
| 2026-05-07 08:13 | 10.30580 | 123.97361 | 36 ft | 15 kts | 224° |
| 2026-05-07 08:14 | 10.30501 | 123.97283 | 36 ft | 16 kts | 224° |
| 2026-05-07 08:14 | 10.30420 | 123.97199 | 36 ft | 17 kts | 226° |
| 2026-05-07 08:14 | 10.30341 | 123.97172 | 36 ft | 13 kts | 133° |
| 2026-05-07 08:14 | 10.30279 | 123.97237 | 36 ft | 13 kts | 133° |
| 2026-05-07 08:15 | 10.30217 | 123.97304 | 36 ft | 13 kts | 134° |
| 2026-05-07 08:15 | 10.30186 | 123.97369 | 36 ft | 10 kts | 74° |
| 2026-05-07 08:15 | 10.30204 | 123.97389 | 36 ft | 0 kts | 43° |
| 2026-05-07 08:16 | 10.31044 | 123.98245 | 183 ft | 79 kts | 41° |
| 2026-05-07 08:17 | 10.31304 | 123.98508 | 276 ft | 81 kts | 42° |
| 2026-05-07 08:17 | 10.32729 | 123.99954 | 835 ft | 84 kts | 40° |
| 2026-05-07 08:18 | 10.33135 | 124.00359 | 891 ft | 79 kts | 41° |
| 2026-05-07 08:18 | 10.33536 | 124.00746 | 1019 ft | 82 kts | 41° |
| 2026-05-07 08:18 | 10.33964 | 124.01125 | 1149 ft | 81 kts | 39° |
| 2026-05-07 08:18 | 10.34431 | 124.01501 | 1169 ft | 96 kts | 37° |
| 2026-05-07 08:19 | 10.35010 | 124.01919 | 1241 ft | 108 kts | 34° |
| 2026-05-07 08:19 | 10.35573 | 124.02405 | 1343 ft | 106 kts | 62° |
| 2026-05-07 08:19 | 10.35616 | 124.03144 | 1459 ft | 111 kts | 102° |
| 2026-05-07 08:19 | 10.35238 | 124.03853 | 1572 ft | 118 kts | 122° |
| 2026-05-07 08:20 | 10.34593 | 124.04393 | 1726 ft | 121 kts | 141° |
| 2026-05-07 08:20 | 10.33789 | 124.04624 | 1858 ft | 126 kts | 181° |
| 2026-05-07 08:20 | 10.32916 | 124.04556 | 1948 ft | 124 kts | 173° |
| 2026-05-07 08:20 | 10.32061 | 124.04563 | 2076 ft | 124 kts | 179° |
| 2026-05-07 08:21 | 10.31189 | 124.04486 | 2136 ft | 128 kts | 179° |
| 2026-05-07 08:21 | 10.30305 | 124.04446 | 2204 ft | 126 kts | 177° |
| 2026-05-07 08:21 | 10.29446 | 124.04386 | 2331 ft | 125 kts | 177° |
| 2026-05-07 08:21 | 10.28583 | 124.04330 | 2474 ft | 124 kts | 178° |
| 2026-05-07 08:22 | 10.27723 | 124.04270 | 2597 ft | 124 kts | 176° |
| 2026-05-07 08:22 | 10.26869 | 124.04196 | 2722 ft | 122 kts | 178° |
| 2026-05-07 08:22 | 10.26015 | 124.04143 | 2811 ft | 125 kts | 177° |
| 2026-05-07 08:22 | 10.25135 | 124.04083 | 2904 ft | 127 kts | 178° |
| 2026-05-07 08:23 | 10.24262 | 124.04009 | 3029 ft | 125 kts | 178° |
| 2026-05-07 08:23 | 10.23392 | 124.03893 | 3104 ft | 131 kts | 198° |
| 2026-05-07 08:23 | 10.22846 | 124.03176 | 3181 ft | 137 kts | 265° |
| 2026-05-07 08:23 | 10.23191 | 124.02344 | 3271 ft | 128 kts | 328° |
| 2026-05-07 08:24 | 10.23917 | 124.01829 | 3365 ft | 129 kts | 326° |
| 2026-05-07 08:24 | 10.24611 | 124.01253 | 3466 ft | 128 kts | 330° |
| 2026-05-07 08:24 | 10.25292 | 124.00750 | 3480 ft | 122 kts | 328° |
| 2026-05-07 08:24 | 10.25956 | 124.00225 | 3536 ft | 120 kts | 330° |
| 2026-05-07 08:25 | 10.26628 | 123.99719 | 3575 ft | 121 kts | 328° |
| 2026-05-07 08:25 | 10.27241 | 123.99127 | 3614 ft | 123 kts | 316° |
| 2026-05-07 08:25 | 10.27774 | 123.98456 | 3653 ft | 123 kts | 314° |
| 2026-05-07 08:25 | 10.28331 | 123.97802 | 3699 ft | 122 kts | 315° |
| 2026-05-07 08:26 | 10.29416 | 123.96470 | 3793 ft | 123 kts | 315° |
| 2026-05-07 08:26 | 10.29945 | 123.95780 | 3856 ft | 124 kts | 310° |
| 2026-05-07 08:26 | 10.30136 | 123.94926 | 3906 ft | 127 kts | 268° |
| 2026-05-07 08:27 | 10.30211 | 123.94027 | 3951 ft | 129 kts | 281° |
| 2026-05-07 08:27 | 10.30303 | 123.93120 | 3991 ft | 128 kts | 275° |
| 2026-05-07 08:27 | 10.30393 | 123.92216 | 4005 ft | 129 kts | 277° |
| 2026-05-07 08:27 | 10.30476 | 123.91303 | 4029 ft | 130 kts | 276° |
| 2026-05-07 08:28 | 10.30547 | 123.90385 | 4076 ft | 131 kts | 266° |
| 2026-05-07 08:28 | 10.30376 | 123.89485 | 4128 ft | 131 kts | 262° |
| 2026-05-07 08:28 | 10.30314 | 123.88571 | 4180 ft | 130 kts | 260° |
| 2026-05-07 08:28 | 10.30189 | 123.87658 | 4207 ft | 131 kts | 266° |
| 2026-05-07 08:29 | 10.30111 | 123.86733 | 4258 ft | 132 kts | 261° |
| 2026-05-07 08:29 | 10.29947 | 123.85814 | 4323 ft | 132 kts | 256° |
| 2026-05-07 08:29 | 10.29738 | 123.84915 | 4390 ft | 131 kts | 253° |
| 2026-05-07 08:29 | 10.29245 | 123.84187 | 4404 ft | 124 kts | 203° |
| 2026-05-07 08:30 | 10.28520 | 123.83711 | 4431 ft | 126 kts | 214° |
| 2026-05-07 08:30 | 10.27832 | 123.83177 | 4479 ft | 123 kts | 206° |
| 2026-05-07 08:30 | 10.27104 | 123.82776 | 4533 ft | 117 kts | 185° |
| 2026-05-07 08:30 | 10.26329 | 123.82470 | 4584 ft | 121 kts | 195° |
| 2026-05-07 08:31 | 10.25553 | 123.82167 | 4633 ft | 120 kts | 191° |
| 2026-05-07 08:31 | 10.24776 | 123.81835 | 4671 ft | 122 kts | 197° |
| 2026-05-07 08:31 | 10.24102 | 123.81279 | 4677 ft | 132 kts | 236° |
| 2026-05-07 08:31 | 10.23734 | 123.80428 | 4720 ft | 131 kts | 235° |
| 2026-05-07 08:32 | 10.23313 | 123.79608 | 4738 ft | 133 kts | 247° |
| 2026-05-07 08:32 | 10.22954 | 123.78747 | 4754 ft | 132 kts | 238° |
| 2026-05-07 08:32 | 10.22593 | 123.77884 | 4777 ft | 133 kts | 247° |
| 2026-05-07 08:32 | 10.22231 | 123.77030 | 4798 ft | 132 kts | 240° |
| 2026-05-07 08:33 | 10.21868 | 123.76188 | 4821 ft | 132 kts | 246° |
| 2026-05-07 08:33 | 10.21516 | 123.75325 | 4869 ft | 133 kts | 242° |
| 2026-05-07 08:33 | 10.21140 | 123.74467 | 4904 ft | 134 kts | 244° |
| 2026-05-07 08:33 | 10.20793 | 123.73588 | 4936 ft | 133 kts | 243° |
| 2026-05-07 08:34 | 10.20417 | 123.72730 | 4972 ft | 133 kts | 243° |
| 2026-05-07 08:34 | 10.20063 | 123.71864 | 5006 ft | 133 kts | 247° |
| 2026-05-07 08:34 | 10.19703 | 123.71000 | 5047 ft | 133 kts | 243° |
| 2026-05-07 08:34 | 10.19334 | 123.70142 | 4912 ft | 134 kts | 243° |
| 2026-05-07 08:35 | 10.18977 | 123.69270 | 4947 ft | 136 kts | 243° |
| 2026-05-07 08:35 | 10.18591 | 123.68368 | 4936 ft | 142 kts | 242° |
| 2026-05-07 08:35 | 10.18228 | 123.67460 | 5073 ft | 141 kts | 244° |
| 2026-05-07 08:35 | 10.17821 | 123.66532 | 5161 ft | 145 kts | 243° |
| 2026-05-07 08:36 | 10.17436 | 123.65586 | 5268 ft | 145 kts | 246° |
| 2026-05-07 08:36 | 10.17036 | 123.64637 | 5253 ft | 146 kts | 240° |
| 2026-05-07 08:36 | 10.16635 | 123.63705 | 5431 ft | 143 kts | 245° |
| 2026-05-07 08:36 | 10.16250 | 123.62762 | 5530 ft | 147 kts | 242° |
| 2026-05-07 08:37 | 10.15843 | 123.61811 | 5687 ft | 146 kts | 244° |
| 2026-05-07 08:37 | 10.15456 | 123.60858 | 5825 ft | 146 kts | 242° |
| 2026-05-07 08:37 | 10.15057 | 123.59915 | 5948 ft | 145 kts | 244° |
| 2026-05-07 08:37 | 10.14675 | 123.59004 | 6033 ft | 141 kts | 244° |
| 2026-05-07 08:38 | 10.14324 | 123.58116 | 5968 ft | 137 kts | 239° |
| 2026-05-07 08:38 | 10.13885 | 123.57211 | 6057 ft | 146 kts | 239° |
| 2026-05-07 08:38 | 10.13453 | 123.56284 | 6200 ft | 146 kts | 245° |
| 2026-05-07 08:38 | 10.13158 | 123.55293 | 6334 ft | 146 kts | 250° |
| 2026-05-07 08:39 | 10.12812 | 123.54333 | 6459 ft | 147 kts | 246° |
| 2026-05-07 08:39 | 10.12484 | 123.53344 | 6607 ft | 147 kts | 248° |
| 2026-05-07 08:39 | 10.12140 | 123.52366 | 6718 ft | 148 kts | 246° |
| 2026-05-07 08:39 | 10.11806 | 123.51378 | 6858 ft | 148 kts | 248° |
| 2026-05-07 08:40 | 10.11463 | 123.50390 | 6984 ft | 149 kts | 247° |
| 2026-05-07 08:40 | 10.11128 | 123.49399 | 7130 ft | 149 kts | 247° |
| 2026-05-07 08:40 | 10.10782 | 123.48410 | 7280 ft | 149 kts | 246° |
| 2026-05-07 08:40 | 10.10440 | 123.47411 | 7415 ft | 150 kts | 248° |
| 2026-05-07 08:41 | 10.10096 | 123.46415 | 7561 ft | 150 kts | 247° |
| 2026-05-07 08:41 | 10.09749 | 123.45416 | 7685 ft | 151 kts | 248° |
| 2026-05-07 08:41 | 10.09408 | 123.44409 | 7823 ft | 150 kts | 247° |
| 2026-05-07 08:41 | 10.09061 | 123.43423 | 7963 ft | 150 kts | 247° |
| 2026-05-07 08:42 | 10.08831 | 123.42738 | 7999 ft | 155 kts | 248° |
| 2026-05-07 08:42 | 10.08342 | 123.41318 | 8011 ft | 165 kts | 248° |
| 2026-05-07 08:42 | 10.07963 | 123.40202 | 8009 ft | 170 kts | 249° |
| 2026-05-07 08:42 | 10.07565 | 123.39057 | 8009 ft | 173 kts | 248° |
| 2026-05-07 08:43 | 10.07169 | 123.37901 | 8005 ft | 174 kts | 248° |
| 2026-05-07 08:43 | 10.06765 | 123.36732 | 8010 ft | 176 kts | 248° |
| 2026-05-07 08:43 | 10.06359 | 123.35556 | 8011 ft | 177 kts | 249° |
| 2026-05-07 08:43 | 10.05954 | 123.34376 | 8010 ft | 177 kts | 248° |
| 2026-05-07 08:44 | 10.05547 | 123.33200 | 8006 ft | 177 kts | 248° |
| 2026-05-07 08:44 | 10.05141 | 123.32023 | 8005 ft | 176 kts | 248° |
| 2026-05-07 08:44 | 10.04734 | 123.30848 | 8008 ft | 177 kts | 248° |
| 2026-05-07 08:44 | 10.04329 | 123.29668 | 8008 ft | 177 kts | 248° |
| 2026-05-07 08:45 | 10.03920 | 123.28491 | 8007 ft | 177 kts | 248° |
| 2026-05-07 08:45 | 10.03653 | 123.27710 | 8005 ft | 177 kts | 248° |
| 2026-05-07 08:45 | 10.03110 | 123.26146 | 8003 ft | 177 kts | 248° |
| 2026-05-07 08:45 | 10.02700 | 123.24949 | 8009 ft | 178 kts | 249° |
| 2026-05-07 08:46 | 10.02293 | 123.23778 | 8006 ft | 178 kts | 248° |
| 2026-05-07 08:46 | 10.01885 | 123.22594 | 8005 ft | 178 kts | 248° |
| 2026-05-07 08:46 | 10.01474 | 123.21403 | 7997 ft | 178 kts | 248° |
| 2026-05-07 08:46 | 10.01063 | 123.20214 | 8007 ft | 179 kts | 248° |
| 2026-05-07 08:47 | 10.00652 | 123.19018 | 8002 ft | 180 kts | 249° |
| 2026-05-07 08:47 | 10.00239 | 123.17822 | 8005 ft | 180 kts | 248° |
| 2026-05-07 08:47 | 9.99822 | 123.16624 | 8000 ft | 180 kts | 248° |
| 2026-05-07 08:47 | 9.99407 | 123.15424 | 8003 ft | 181 kts | 249° |
| 2026-05-07 08:48 | 9.98993 | 123.14222 | 7996 ft | 180 kts | 248° |
| 2026-05-07 08:48 | 9.98578 | 123.13023 | 8002 ft | 180 kts | 248° |
| 2026-05-07 08:48 | 9.98162 | 123.11816 | 7993 ft | 182 kts | 248° |
| 2026-05-07 08:48 | 9.97761 | 123.10640 | 7998 ft | 174 kts | 248° |
| 2026-05-07 08:49 | 9.97348 | 123.09481 | 7997 ft | 172 kts | 249° |
| 2026-05-07 08:49 | 9.96952 | 123.08340 | 7993 ft | 172 kts | 248° |
| 2026-05-07 08:49 | 9.96562 | 123.07207 | 7996 ft | 173 kts | 249° |
| 2026-05-07 08:49 | 9.96165 | 123.06050 | 8003 ft | 175 kts | 248° |
| 2026-05-07 08:50 | 9.95761 | 123.04876 | 8001 ft | 178 kts | 248° |
| 2026-05-07 08:50 | 9.95349 | 123.03683 | 7994 ft | 180 kts | 247° |
| 2026-05-07 08:50 | 9.94932 | 123.02490 | 7995 ft | 178 kts | 248° |
| 2026-05-07 08:50 | 9.94523 | 123.01304 | 7999 ft | 178 kts | 249° |
| 2026-05-07 08:51 | 9.94124 | 123.00164 | 7991 ft | 168 kts | 248° |
| 2026-05-07 08:51 | 9.93732 | 122.99033 | 7990 ft | 173 kts | 249° |
| 2026-05-07 08:51 | 9.93336 | 122.97878 | 7985 ft | 174 kts | 248° |
| 2026-05-07 08:51 | 9.93069 | 122.97103 | 7989 ft | 175 kts | 248° |
| 2026-05-07 08:52 | 9.92662 | 122.95934 | 7989 ft | 176 kts | 248° |
| 2026-05-07 08:52 | 9.92119 | 122.94362 | 8000 ft | 177 kts | 248° |
| 2026-05-07 08:52 | 9.91846 | 122.93577 | 7990 ft | 177 kts | 248° |
| 2026-05-07 08:52 | 9.91440 | 122.92400 | 7994 ft | 177 kts | 249° |
| 2026-05-07 08:53 | 9.91036 | 122.91230 | 7991 ft | 174 kts | 248° |
| 2026-05-07 08:53 | 9.90497 | 122.89694 | 7990 ft | 175 kts | 248° |
| 2026-05-07 08:53 | 9.90225 | 122.88904 | 7987 ft | 175 kts | 249° |
| 2026-05-07 08:53 | 9.89824 | 122.87733 | 7990 ft | 176 kts | 248° |
| 2026-05-07 08:54 | 9.89417 | 122.86563 | 7993 ft | 176 kts | 248° |
| 2026-05-07 08:54 | 9.89015 | 122.85413 | 7996 ft | 176 kts | 248° |
| 2026-05-07 08:54 | 9.88612 | 122.84237 | 7991 ft | 178 kts | 249° |
| 2026-05-07 08:54 | 9.88200 | 122.83053 | 7993 ft | 178 kts | 248° |
| 2026-05-07 08:55 | 9.87783 | 122.81861 | 7994 ft | 179 kts | 249° |
| 2026-05-07 08:55 | 9.87372 | 122.80669 | 7989 ft | 179 kts | 248° |
| 2026-05-07 08:55 | 9.86957 | 122.79480 | 7992 ft | 179 kts | 249° |
| 2026-05-07 08:55 | 9.86547 | 122.78290 | 7993 ft | 179 kts | 249° |
| 2026-05-07 08:56 | 9.86134 | 122.77106 | 7986 ft | 178 kts | 248° |
| 2026-05-07 08:56 | 9.85725 | 122.75924 | 7992 ft | 178 kts | 249° |
| 2026-05-07 08:56 | 9.85314 | 122.74741 | 7987 ft | 178 kts | 248° |
| 2026-05-07 08:56 | 9.84903 | 122.73558 | 7991 ft | 178 kts | 249° |
| 2026-05-07 08:57 | 9.84499 | 122.72388 | 7987 ft | 177 kts | 248° |
| 2026-05-07 08:57 | 9.84087 | 122.71206 | 7991 ft | 178 kts | 249° |
| 2026-05-07 08:57 | 9.83682 | 122.70032 | 7987 ft | 175 kts | 249° |
| 2026-05-07 08:57 | 9.83271 | 122.68868 | 7979 ft | 176 kts | 249° |
| 2026-05-07 08:58 | 9.82870 | 122.67699 | 7982 ft | 176 kts | 249° |
| 2026-05-07 08:58 | 9.82464 | 122.66526 | 7979 ft | 176 kts | 251° |
| 2026-05-07 08:58 | 9.82103 | 122.65342 | 7968 ft | 176 kts | 251° |
| 2026-05-07 08:58 | 9.81676 | 122.64179 | 7976 ft | 175 kts | 248° |
| 2026-05-07 08:59 | 9.81262 | 122.63022 | 7973 ft | 174 kts | 250° |
| 2026-05-07 08:59 | 9.80856 | 122.61869 | 7979 ft | 173 kts | 249° |
| 2026-05-07 08:59 | 9.80452 | 122.60719 | 7974 ft | 175 kts | 250° |
| 2026-05-07 08:59 | 9.80051 | 122.59556 | 7978 ft | 177 kts | 250° |
| 2026-05-07 09:00 | 9.79628 | 122.58346 | 7988 ft | 183 kts | 249° |
| 2026-05-07 09:00 | 9.79204 | 122.57117 | 7987 ft | 184 kts | 250° |
| 2026-05-07 09:00 | 9.78790 | 122.55920 | 7988 ft | 182 kts | 250° |
| 2026-05-07 09:00 | 9.78368 | 122.54715 | 7984 ft | 181 kts | 250° |
| 2026-05-07 09:01 | 9.78092 | 122.53917 | 7977 ft | 180 kts | 250° |